Karmel — 9HA2896 — position and weather

sailwx.info

Track history (hours):
 
Tides and Currents Weather Stations Pressure Air Temp Water Temp Dewpoint Dewpoint Depression Visibility Wind Speed Wind Dir Waves Ship Positions

Karmel

Last reported at 2017-Jan-18 08:25 UTC. Time now 2017-Jan-18 14:09 UTC.
Position N 57°18' E 008°51'.

Length 90 m; draft 3.8 m.

Type: Ship. MMSI: 256632000.

Date/timePositionNaut miles runAvg speedWind from/ knotsBaromVisibWave heightAir tempDewpointWater temp
2017-Jan-18 08:25N 57°18' E 008°51'1111.8
2017-Jan-18 07:32N 57°13' E 008°34'39511.0
2017-Jan-16 19:34N 51°51' E 001°60'1111.0
2017-Jan-16 18:33N 51°49' E 001°42'1212.5
2017-Jan-16 17:33N 51°44' E 001°24'1313.2
2017-Jan-16 16:33N 51°34' E 001°09'1211.9
2017-Jan-16 15:33N 51°29' E 000°52'7 6.8
2017-Jan-16 14:33N 51°25' E 000°43'2 0.0
2017-Jan-14 12:25N 51°23' E 000°46'3 3.9
2017-Jan-14 11:33N 51°26' E 000°44'6 5.7
2017-Jan-14 10:33N 51°29' E 000°52'5 4.9
2017-Jan-14 09:32N 51°31' E 000°60'0 0.1
2017-Jan-14 08:23N 51°31' E 001°00'0 0.0
2017-Jan-14 07:32N 51°31' E 001°00'0 0.0
2017-Jan-14 06:23N 51°31' E 001°00'0 0.0
2017-Jan-14 05:32N 51°31' E 001°00'0 0.0
2017-Jan-14 04:32N 51°31' E 001°00'0 0.0
2017-Jan-14 03:32N 51°31' E 001°00'27 6.7
2017-Jan-13 23:33N 51°18' E 001°37'8 8.4
2017-Jan-13 22:33N 51°10' E 001°33'6 6.5
2017-Jan-13 21:33N 51°03' E 001°35'6 6.2
2017-Jan-13 20:33N 50°59' E 001°28'6 6.1
2017-Jan-13 19:33N 50°54' E 001°24'52 8.6
2017-Jan-13 13:33N 50°25' E 000°16'1110.6
2017-Jan-13 12:33N 50°22' E 000°00'1111.3
2017-Jan-13 11:34N 50°28' W 000°15'1111.0
2017-Jan-13 10:33N 50°33' W 000°31'13911.2
2017-Jan-12 22:08N 50°01' W 004°03'610.1
2017-Jan-12 21:31N 49°59' W 004°12'1010.6
2017-Jan-12 20:33N 49°57' W 004°27'1111.0
2017-Jan-12 19:33N 49°54' W 004°44'55 7.7
2017-Jan-12 12:24N 50°24' W 005°56'810.0
2017-Jan-12 11:33N 50°29' W 005°47'1010.4
2017-Jan-12 10:34N 50°36' W 005°34'1010.4
2017-Jan-12 09:34N 50°42' W 005°21'1010.1
2017-Jan-12 08:34N 50°49' W 005°09'10 9.5
2017-Jan-12 07:34N 50°55' W 004°58'9 8.8
2017-Jan-12 06:34N 51°01' W 004°47'8 8.3
2017-Jan-12 05:33N 51°06' W 004°37'8 7.8
2017-Jan-12 04:29N 51°11' W 004°26'56 8.0
2017-Jan-11 21:33N 51°27' W 003°00'1211.6
2017-Jan-11 20:33N 51°30' W 002°43'0 0.5
2017-Jan-11 19:33N 51°31' W 002°42'0 0.0
2017-Jan-11 18:33N 51°31' W 002°42'0 0.0
2017-Jan-11 17:33N 51°31' W 002°42'0 0.0
2017-Jan-11 16:33N 51°31' W 002°42'0 0.0
2017-Jan-11 15:33N 51°31' W 002°42'0 0.0
2017-Jan-11 14:33N 51°31' W 002°42'0 0.0
2017-Jan-11 13:33N 51°31' W 002°42'0 0.0
2017-Jan-11 12:33N 51°31' W 002°42'0 0.0
2017-Jan-11 11:33N 51°31' W 002°42'0 0.0
2017-Jan-11 10:33N 51°31' W 002°42'0 0.0
2017-Jan-11 09:33N 51°31' W 002°42'0 0.0
2017-Jan-11 08:33N 51°31' W 002°42'0 0.0
2017-Jan-11 07:33N 51°31' W 002°42'0 0.0
2017-Jan-11 06:33N 51°31' W 002°42'0 0.0
2017-Jan-11 05:33N 51°31' W 002°42'0 0.0
2017-Jan-11 04:33N 51°31' W 002°42'0 0.0
2017-Jan-11 03:33N 51°31' W 002°42'0 0.0
2017-Jan-11 02:33N 51°31' W 002°42'0 0.0
2017-Jan-11 01:33N 51°31' W 002°42'0 0.0
2017-Jan-11 00:33N 51°31' W 002°42'0 0.0
2017-Jan-10 23:33N 51°31' W 002°42'0 0.0
2017-Jan-10 22:33N 51°31' W 002°42'0 0.0
2017-Jan-10 21:33N 51°31' W 002°42'0 0.0
2017-Jan-10 20:33N 51°31' W 002°42'0 0.0
2017-Jan-10 19:33N 51°31' W 002°42'0 0.0
2017-Jan-10 18:33N 51°31' W 002°42'0 0.0
2017-Jan-10 17:33N 51°31' W 002°42'0 0.0
2017-Jan-10 16:33N 51°31' W 002°42'0 0.0
2017-Jan-10 15:33N 51°31' W 002°42'0 0.0
2017-Jan-10 14:33N 51°31' W 002°42'0 0.0
2017-Jan-10 13:33N 51°31' W 002°42'0 0.0
2017-Jan-10 12:33N 51°31' W 002°42'0 0.0
2017-Jan-10 11:33N 51°31' W 002°42'0 0.0
2017-Jan-10 10:33N 51°31' W 002°42'0 0.0
2017-Jan-10 09:33N 51°31' W 002°42'0 0.0
2017-Jan-10 08:33N 51°31' W 002°42'0 0.0
2017-Jan-10 07:33N 51°31' W 002°42'0 0.0
2017-Jan-10 06:33N 51°31' W 002°42'0 0.0
2017-Jan-10 05:33N 51°31' W 002°42'0 0.0
2017-Jan-10 04:33N 51°31' W 002°42'0 0.0
2017-Jan-10 03:33N 51°31' W 002°42'0 0.0
2017-Jan-10 02:33N 51°31' W 002°42'0 0.0
2017-Jan-10 01:33N 51°31' W 002°42'0 0.0
2017-Jan-10 00:33N 51°31' W 002°42'0 0.0
2017-Jan-09 23:33N 51°31' W 002°42'0 0.0
2017-Jan-09 22:33N 51°31' W 002°42'0 0.0
2017-Jan-09 21:33N 51°31' W 002°42'0 0.0
2017-Jan-09 20:33N 51°31' W 002°42'0 0.0
2017-Jan-09 19:33N 51°31' W 002°42'0 0.0
2017-Jan-09 18:33N 51°31' W 002°42'0 0.0
2017-Jan-09 17:33N 51°31' W 002°42'0 0.0
2017-Jan-09 16:33N 51°31' W 002°42'0 0.0
2017-Jan-09 15:33N 51°31' W 002°42'0 0.0
2017-Jan-09 14:33N 51°31' W 002°42'0 0.0
2017-Jan-09 13:33N 51°31' W 002°42'0 0.0
2017-Jan-09 12:33N 51°31' W 002°42'0 0.0
2017-Jan-09 11:33N 51°31' W 002°42'0 0.0
2017-Jan-09 10:33N 51°31' W 002°42'0 0.0
2017-Jan-09 09:33N 51°31' W 002°42'0 0.0
2017-Jan-09 08:33N 51°31' W 002°42'0 0.0
2017-Jan-09 07:33N 51°31' W 002°42'0 0.0
2017-Jan-09 06:33N 51°31' W 002°42'0 0.0
2017-Jan-09 05:33N 51°31' W 002°42'0 0.0
2017-Jan-09 04:33N 51°31' W 002°42'0 0.0
2017-Jan-09 03:33N 51°31' W 002°42'0 0.0
2017-Jan-09 02:33N 51°31' W 002°42'0 0.0
2017-Jan-09 01:33N 51°31' W 002°42'0 0.0
2017-Jan-09 00:33N 51°31' W 002°42'0 0.0
2017-Jan-08 23:33N 51°31' W 002°42'0 0.0
2017-Jan-08 22:33N 51°31' W 002°42'0 0.0
2017-Jan-08 21:33N 51°31' W 002°42'0 0.0
2017-Jan-08 20:33N 51°31' W 002°42'0 0.0
2017-Jan-08 19:33N 51°31' W 002°42'0 0.0
2017-Jan-08 18:33N 51°31' W 002°42'0 0.0
2017-Jan-08 17:33N 51°31' W 002°42'0 0.0
2017-Jan-08 16:33N 51°31' W 002°42'0 0.0
2017-Jan-08 15:33N 51°31' W 002°42'0 0.0
2017-Jan-08 14:33N 51°31' W 002°42'0 0.0
2017-Jan-08 13:33N 51°31' W 002°42'1 0.6
2017-Jan-08 12:33N 51°31' W 002°43'1010.3
2017-Jan-08 11:33N 51°27' W 002°59'  
Track history (hours):
 
Tides and Currents Weather Stations Pressure Air Temp Water Temp Dewpoint Dewpoint Depression Visibility Wind Speed Wind Dir Waves Ship Positions

Karmel

Last reported at 2017-Jan-18 08:25 UTC. Time now 2017-Jan-18 14:10 UTC.
Position N 57°18' E 008°51'.

Length 90 m; draft 3.8 m.

Type: Ship. MMSI: 256632000.

Date/timePositionNaut miles runAvg speedWind from/ knotsBaromVisibWave heightAir tempDewpointWater temp
2017-Jan-18 08:25N 57°18' E 008°51'1111.8
2017-Jan-18 07:32N 57°13' E 008°34'39511.0
2017-Jan-16 19:34N 51°51' E 001°60'1111.0
2017-Jan-16 18:33N 51°49' E 001°42'1212.5
2017-Jan-16 17:33N 51°44' E 001°24'1313.2
2017-Jan-16 16:33N 51°34' E 001°09'1211.9
2017-Jan-16 15:33N 51°29' E 000°52'7 6.8
2017-Jan-16 14:33N 51°25' E 000°43'2 0.0
2017-Jan-14 12:25N 51°23' E 000°46'3 3.9
2017-Jan-14 11:33N 51°26' E 000°44'6 5.7
2017-Jan-14 10:33N 51°29' E 000°52'5 4.9
2017-Jan-14 09:32N 51°31' E 000°60'0 0.1
2017-Jan-14 08:23N 51°31' E 001°00'0 0.0
2017-Jan-14 07:32N 51°31' E 001°00'0 0.0
2017-Jan-14 06:23N 51°31' E 001°00'0 0.0
2017-Jan-14 05:32N 51°31' E 001°00'0 0.0
2017-Jan-14 04:32N 51°31' E 001°00'0 0.0
2017-Jan-14 03:32N 51°31' E 001°00'27 6.7
2017-Jan-13 23:33N 51°18' E 001°37'8 8.4
2017-Jan-13 22:33N 51°10' E 001°33'6 6.5
2017-Jan-13 21:33N 51°03' E 001°35'6 6.2
2017-Jan-13 20:33N 50°59' E 001°28'6 6.1
2017-Jan-13 19:33N 50°54' E 001°24'52 8.6
2017-Jan-13 13:33N 50°25' E 000°16'1110.6
2017-Jan-13 12:33N 50°22' E 000°00'1111.3
2017-Jan-13 11:34N 50°28' W 000°15'1111.0
2017-Jan-13 10:33N 50°33' W 000°31'13911.2
2017-Jan-12 22:08N 50°01' W 004°03'610.1
2017-Jan-12 21:31N 49°59' W 004°12'1010.6
2017-Jan-12 20:33N 49°57' W 004°27'1111.0
2017-Jan-12 19:33N 49°54' W 004°44'55 7.7
2017-Jan-12 12:24N 50°24' W 005°56'810.0
2017-Jan-12 11:33N 50°29' W 005°47'1010.4
2017-Jan-12 10:34N 50°36' W 005°34'1010.4
2017-Jan-12 09:34N 50°42' W 005°21'1010.1
2017-Jan-12 08:34N 50°49' W 005°09'10 9.5
2017-Jan-12 07:34N 50°55' W 004°58'9 8.8
2017-Jan-12 06:34N 51°01' W 004°47'8 8.3
2017-Jan-12 05:33N 51°06' W 004°37'8 7.8
2017-Jan-12 04:29N 51°11' W 004°26'56 8.0
2017-Jan-11 21:33N 51°27' W 003°00'1211.6
2017-Jan-11 20:33N 51°30' W 002°43'0 0.5
2017-Jan-11 19:33N 51°31' W 002°42'0 0.0
2017-Jan-11 18:33N 51°31' W 002°42'0 0.0
2017-Jan-11 17:33N 51°31' W 002°42'0 0.0
2017-Jan-11 16:33N 51°31' W 002°42'0 0.0
2017-Jan-11 15:33N 51°31' W 002°42'0 0.0
2017-Jan-11 14:33N 51°31' W 002°42'0 0.0
2017-Jan-11 13:33N 51°31' W 002°42'0 0.0
2017-Jan-11 12:33N 51°31' W 002°42'0 0.0
2017-Jan-11 11:33N 51°31' W 002°42'0 0.0
2017-Jan-11 10:33N 51°31' W 002°42'0 0.0
2017-Jan-11 09:33N 51°31' W 002°42'0 0.0
2017-Jan-11 08:33N 51°31' W 002°42'0 0.0
2017-Jan-11 07:33N 51°31' W 002°42'0 0.0
2017-Jan-11 06:33N 51°31' W 002°42'0 0.0
2017-Jan-11 05:33N 51°31' W 002°42'0 0.0
2017-Jan-11 04:33N 51°31' W 002°42'0 0.0
2017-Jan-11 03:33N 51°31' W 002°42'0 0.0
2017-Jan-11 02:33N 51°31' W 002°42'0 0.0
2017-Jan-11 01:33N 51°31' W 002°42'0 0.0
2017-Jan-11 00:33N 51°31' W 002°42'0 0.0
2017-Jan-10 23:33N 51°31' W 002°42'0 0.0
2017-Jan-10 22:33N 51°31' W 002°42'0 0.0
2017-Jan-10 21:33N 51°31' W 002°42'0 0.0
2017-Jan-10 20:33N 51°31' W 002°42'0 0.0
2017-Jan-10 19:33N 51°31' W 002°42'0 0.0
2017-Jan-10 18:33N 51°31' W 002°42'0 0.0
2017-Jan-10 17:33N 51°31' W 002°42'0 0.0
2017-Jan-10 16:33N 51°31' W 002°42'0 0.0
2017-Jan-10 15:33N 51°31' W 002°42'0 0.0
2017-Jan-10 14:33N 51°31' W 002°42'0 0.0
2017-Jan-10 13:33N 51°31' W 002°42'0 0.0
2017-Jan-10 12:33N 51°31' W 002°42'0 0.0
2017-Jan-10 11:33N 51°31' W 002°42'0 0.0
2017-Jan-10 10:33N 51°31' W 002°42'0 0.0
2017-Jan-10 09:33N 51°31' W 002°42'0 0.0
2017-Jan-10 08:33N 51°31' W 002°42'0 0.0
2017-Jan-10 07:33N 51°31' W 002°42'0 0.0
2017-Jan-10 06:33N 51°31' W 002°42'0 0.0
2017-Jan-10 05:33N 51°31' W 002°42'0 0.0
2017-Jan-10 04:33N 51°31' W 002°42'0 0.0
2017-Jan-10 03:33N 51°31' W 002°42'0 0.0
2017-Jan-10 02:33N 51°31' W 002°42'0 0.0
2017-Jan-10 01:33N 51°31' W 002°42'0 0.0
2017-Jan-10 00:33N 51°31' W 002°42'0 0.0
2017-Jan-09 23:33N 51°31' W 002°42'0 0.0
2017-Jan-09 22:33N 51°31' W 002°42'0 0.0
2017-Jan-09 21:33N 51°31' W 002°42'0 0.0
2017-Jan-09 20:33N 51°31' W 002°42'0 0.0
2017-Jan-09 19:33N 51°31' W 002°42'0 0.0
2017-Jan-09 18:33N 51°31' W 002°42'0 0.0
2017-Jan-09 17:33N 51°31' W 002°42'0 0.0
2017-Jan-09 16:33N 51°31' W 002°42'0 0.0
2017-Jan-09 15:33N 51°31' W 002°42'0 0.0
2017-Jan-09 14:33N 51°31' W 002°42'0 0.0
2017-Jan-09 13:33N 51°31' W 002°42'0 0.0
2017-Jan-09 12:33N 51°31' W 002°42'0 0.0
2017-Jan-09 11:33N 51°31' W 002°42'0 0.0
2017-Jan-09 10:33N 51°31' W 002°42'0 0.0
2017-Jan-09 09:33N 51°31' W 002°42'0 0.0
2017-Jan-09 08:33N 51°31' W 002°42'0 0.0
2017-Jan-09 07:33N 51°31' W 002°42'0 0.0
2017-Jan-09 06:33N 51°31' W 002°42'0 0.0
2017-Jan-09 05:33N 51°31' W 002°42'0 0.0
2017-Jan-09 04:33N 51°31' W 002°42'0 0.0
2017-Jan-09 03:33N 51°31' W 002°42'0 0.0
2017-Jan-09 02:33N 51°31' W 002°42'0 0.0
2017-Jan-09 01:33N 51°31' W 002°42'0 0.0
2017-Jan-09 00:33N 51°31' W 002°42'0 0.0
2017-Jan-08 23:33N 51°31' W 002°42'0 0.0
2017-Jan-08 22:33N 51°31' W 002°42'0 0.0
2017-Jan-08 21:33N 51°31' W 002°42'0 0.0
2017-Jan-08 20:33N 51°31' W 002°42'0 0.0
2017-Jan-08 19:33N 51°31' W 002°42'0 0.0
2017-Jan-08 18:33N 51°31' W 002°42'0 0.0
2017-Jan-08 17:33N 51°31' W 002°42'0 0.0
2017-Jan-08 16:33N 51°31' W 002°42'0 0.0
2017-Jan-08 15:33N 51°31' W 002°42'0 0.0
2017-Jan-08 14:33N 51°31' W 002°42'0 0.0
2017-Jan-08 13:33N 51°31' W 002°42'1 0.6
2017-Jan-08 12:33N 51°31' W 002°43'1010.3
2017-Jan-08 11:33N 51°27' W 002°59'  

Dump ship's entire track history